sensor_id;sensor_type;location;lat;lon;timestamp;noise_LAeq;noise_LA_min;noise_LA_max;noise_LA01;noise_LA95
69620;Laerm;57654;51.434;5.984;2024-02-21T00:00:05;42.10;38.63;50.45;;
69620;Laerm;57654;51.434;5.984;2024-02-21T00:00:16;37.70;29.05;47.57;;
69620;Laerm;57654;51.434;5.984;2024-02-21T00:00:27;34.00;27.80;46.64;;
69620;Laerm;57654;51.434;5.984;2024-02-21T00:00:37;34.78;27.48;47.54;;
69620;Laerm;57654;51.434;5.984;2024-02-21T00:00:51;34.50;27.30;48.72;;
69620;Laerm;57654;51.434;5.984;2024-02-21T00:01:02;33.99;27.46;48.16;;
69620;Laerm;57654;51.434;5.984;2024-02-21T00:01:15;33.63;27.12;45.54;;
69620;Laerm;57654;51.434;5.984;2024-02-21T00:01:26;34.25;27.17;46.77;;
69620;Laerm;57654;51.434;5.984;2024-02-21T00:01:36;33.97;27.34;47.32;;
69620;Laerm;57654;51.434;5.984;2024-02-21T00:01:46;34.22;27.22;47.74;;
69620;Laerm;57654;51.434;5.984;2024-02-21T00:01:57;34.84;27.12;48.28;;
69620;Laerm;57654;51.434;5.984;2024-02-21T00:02:07;34.32;27.33;47.04;;
69620;Laerm;57654;51.434;5.984;2024-02-21T00:02:17;33.75;27.29;46.58;;
69620;Laerm;57654;51.434;5.984;2024-02-21T00:02:27;34.15;27.22;47.10;;
69620;Laerm;57654;51.434;5.984;2024-02-21T00:02:38;34.32;27.11;48.32;;
69620;Laerm;57654;51.434;5.984;2024-02-21T00:02:48;34.78;27.40;49.31;;
69620;Laerm;57654;51.434;5.984;2024-02-21T00:02:58;34.88;27.03;48.60;;
69620;Laerm;57654;51.434;5.984;2024-02-21T00:03:12;34.09;27.28;45.75;;
69620;Laerm;57654;51.434;5.984;2024-02-21T00:03:22;33.96;27.24;46.82;;
69620;Laerm;57654;51.434;5.984;2024-02-21T00:03:32;34.09;26.97;47.13;;
69620;Laerm;57654;51.434;5.984;2024-02-21T00:03:43;34.16;27.24;48.48;;
69620;Laerm;57654;51.434;5.984;2024-02-21T00:03:53;34.73;26.94;48.78;;
69620;Laerm;57654;51.434;5.984;2024-02-21T00:04:03;34.93;27.16;50.62;;
69620;Laerm;57654;51.434;5.984;2024-02-21T00:04:13;33.41;27.08;47.03;;
69620;Laerm;57654;51.434;5.984;2024-02-21T00:04:24;34.34;27.20;48.50;;
69620;Laerm;57654;51.434;5.984;2024-02-21T00:04:34;34.37;27.14;47.77;;
69620;Laerm;57654;51.434;5.984;2024-02-21T00:04:45;34.37;27.18;47.56;;
69620;Laerm;57654;51.434;5.984;2024-02-21T00:04:55;34.65;27.25;49.59;;
69620;Laerm;57654;51.434;5.984;2024-02-21T00:05:05;33.66;27.11;46.79;;
69620;Laerm;57654;51.434;5.984;2024-02-21T00:05:15;33.92;27.09;47.98;;
69620;Laerm;57654;51.434;5.984;2024-02-21T00:05:26;34.72;27.26;49.42;;
69620;Laerm;57654;51.434;5.984;2024-02-21T00:05:36;34.61;27.08;48.41;;
69620;Laerm;57654;51.434;5.984;2024-02-21T00:05:46;34.65;27.18;48.87;;
69620;Laerm;57654;51.434;5.984;2024-02-21T00:05:56;34.82;27.34;48.79;;
69620;Laerm;57654;51.434;5.984;2024-02-21T00:06:07;33.22;27.05;46.76;;
69620;Laerm;57654;51.434;5.984;2024-02-21T00:06:17;34.20;27.27;46.96;;
69620;Laerm;57654;51.434;5.984;2024-02-21T00:06:27;34.01;27.30;47.95;;
69620;Laerm;57654;51.434;5.984;2024-02-21T00:06:37;33.84;27.25;47.91;;
69620;Laerm;57654;51.434;5.984;2024-02-21T00:06:48;34.63;27.27;47.36;;
69620;Laerm;57654;51.434;5.984;2024-02-21T00:06:58;34.42;27.26;48.01;;
69620;Laerm;57654;51.434;5.984;2024-02-21T00:07:09;33.52;27.31;46.96;;
69620;Laerm;57654;51.434;5.984;2024-02-21T00:07:19;33.65;27.14;46.62;;
69620;Laerm;57654;51.434;5.984;2024-02-21T00:07:29;34.56;27.36;47.51;;
69620;Laerm;57654;51.434;5.984;2024-02-21T00:07:39;34.58;27.28;48.68;;
69620;Laerm;57654;51.434;5.984;2024-02-21T00:07:50;34.78;27.39;49.06;;
69620;Laerm;57654;51.434;5.984;2024-02-21T00:08:00;34.14;27.23;47.27;;
69620;Laerm;57654;51.434;5.984;2024-02-21T00:08:10;34.03;27.10;46.74;;
69620;Laerm;57654;51.434;5.984;2024-02-21T00:08:21;34.11;27.23;47.06;;
69620;Laerm;57654;51.434;5.984;2024-02-21T00:08:31;34.23;27.20;47.32;;
69620;Laerm;57654;51.434;5.984;2024-02-21T00:08:41;34.44;27.24;47.36;;
69620;Laerm;57654;51.434;5.984;2024-02-21T00:08:51;34.37;26.99;48.10;;
69620;Laerm;57654;51.434;5.984;2024-02-21T00:09:01;33.92;27.25;47.38;;
69620;Laerm;57654;51.434;5.984;2024-02-21T00:09:12;33.90;27.21;48.59;;
69620;Laerm;57654;51.434;5.984;2024-02-21T00:09:22;34.55;27.36;49.24;;
69620;Laerm;57654;51.434;5.984;2024-02-21T00:09:32;34.11;27.13;47.80;;
69620;Laerm;57654;51.434;5.984;2024-02-21T00:09:42;34.30;27.28;48.41;;
69620;Laerm;57654;51.434;5.984;2024-02-21T00:09:53;34.75;27.23;48.00;;
69620;Laerm;57654;51.434;5.984;2024-02-21T00:10:03;34.27;27.05;46.95;;
69620;Laerm;57654;51.434;5.984;2024-02-21T00:10:14;33.41;27.15;45.60;;
69620;Laerm;57654;51.434;5.984;2024-02-21T00:10:24;34.33;27.18;47.48;;
69620;Laerm;57654;51.434;5.984;2024-02-21T00:10:35;34.35;27.11;48.28;;
69620;Laerm;57654;51.434;5.984;2024-02-21T00:10:45;34.78;27.11;48.30;;
69620;Laerm;57654;51.434;5.984;2024-02-21T00:10:56;34.74;27.11;48.57;;
69620;Laerm;57654;51.434;5.984;2024-02-21T00:11:06;33.38;26.77;45.94;;
69620;Laerm;57654;51.434;5.984;2024-02-21T00:11:17;34.51;27.32;48.21;;
69620;Laerm;57654;51.434;5.984;2024-02-21T00:11:28;33.96;27.01;48.64;;
69620;Laerm;57654;51.434;5.984;2024-02-21T00:11:38;34.05;27.13;47.65;;
69620;Laerm;57654;51.434;5.984;2024-02-21T00:11:48;34.71;27.33;47.76;;
69620;Laerm;57654;51.434;5.984;2024-02-21T00:11:58;34.48;27.20;48.07;;
69620;Laerm;57654;51.434;5.984;2024-02-21T00:12:09;33.69;27.15;46.06;;
69620;Laerm;57654;51.434;5.984;2024-02-21T00:12:19;33.71;27.17;46.46;;
69620;Laerm;57654;51.434;5.984;2024-02-21T00:12:30;34.09;27.15;47.21;;
69620;Laerm;57654;51.434;5.984;2024-02-21T00:12:40;34.20;27.17;46.75;;
69620;Laerm;57654;51.434;5.984;2024-02-21T00:12:51;33.94;27.26;48.08;;
69620;Laerm;57654;51.434;5.984;2024-02-21T00:13:01;33.68;27.26;46.43;;
69620;Laerm;57654;51.434;5.984;2024-02-21T00:13:11;33.89;27.21;46.77;;
69620;Laerm;57654;51.434;5.984;2024-02-21T00:13:21;34.56;27.34;47.42;;
69620;Laerm;57654;51.434;5.984;2024-02-21T00:13:32;34.28;27.26;47.81;;
69620;Laerm;57654;51.434;5.984;2024-02-21T00:13:42;34.29;27.42;47.79;;
69620;Laerm;57654;51.434;5.984;2024-02-21T00:13:52;34.80;27.18;50.39;;
69620;Laerm;57654;51.434;5.984;2024-02-21T00:14:03;34.32;27.15;49.65;;
69620;Laerm;57654;51.434;5.984;2024-02-21T00:14:13;34.74;26.88;49.46;;
69620;Laerm;57654;51.434;5.984;2024-02-21T00:14:23;34.01;27.02;47.99;;
69620;Laerm;57654;51.434;5.984;2024-02-21T00:14:33;34.19;26.95;47.78;;
69620;Laerm;57654;51.434;5.984;2024-02-21T00:14:44;34.22;27.14;47.48;;
69620;Laerm;57654;51.434;5.984;2024-02-21T00:14:54;34.27;27.15;46.54;;
69620;Laerm;57654;51.434;5.984;2024-02-21T00:15:04;33.77;27.34;46.12;;
69620;Laerm;57654;51.434;5.984;2024-02-21T00:15:15;33.98;27.11;47.56;;
69620;Laerm;57654;51.434;5.984;2024-02-21T00:15:25;34.35;27.17;48.32;;
69620;Laerm;57654;51.434;5.984;2024-02-21T00:15:35;34.22;27.14;46.63;;
69620;Laerm;57654;51.434;5.984;2024-02-21T00:15:45;34.31;27.25;48.45;;
69620;Laerm;57654;51.434;5.984;2024-02-21T00:15:56;34.76;27.36;48.61;;
69620;Laerm;57654;51.434;5.984;2024-02-21T00:16:06;34.22;27.04;48.63;;
69620;Laerm;57654;51.434;5.984;2024-02-21T00:16:17;33.91;27.23;46.30;;
69620;Laerm;57654;51.434;5.984;2024-02-21T00:16:27;34.47;27.08;47.67;;
69620;Laerm;57654;51.434;5.984;2024-02-21T00:16:37;34.81;27.34;48.49;;
69620;Laerm;57654;51.434;5.984;2024-02-21T00:16:47;33.98;26.95;46.33;;
69620;Laerm;57654;51.434;5.984;2024-02-21T00:16:57;34.52;27.17;48.26;;
69620;Laerm;57654;51.434;5.984;2024-02-21T00:17:08;33.67;27.25;46.00;;
69620;Laerm;57654;51.434;5.984;2024-02-21T00:17:18;33.88;27.10;46.63;;
69620;Laerm;57654;51.434;5.984;2024-02-21T00:17:29;33.62;27.13;47.46;;
69620;Laerm;57654;51.434;5.984;2024-02-21T00:17:39;34.35;27.01;47.28;;
69620;Laerm;57654;51.434;5.984;2024-02-21T00:17:49;34.85;27.09;48.50;;
69620;Laerm;57654;51.434;5.984;2024-02-21T00:17:59;34.53;26.87;48.96;;
69620;Laerm;57654;51.434;5.984;2024-02-21T00:18:10;34.29;27.21;49.50;;
69620;Laerm;57654;51.434;5.984;2024-02-21T00:18:21;33.71;27.05;46.55;;
69620;Laerm;57654;51.434;5.984;2024-02-21T00:18:31;34.58;26.93;47.83;;
69620;Laerm;57654;51.434;5.984;2024-02-21T00:18:41;34.39;27.17;47.38;;
69620;Laerm;57654;51.434;5.984;2024-02-21T00:18:51;34.07;26.89;46.48;;
69620;Laerm;57654;51.434;5.984;2024-02-21T00:19:02;33.75;27.33;47.16;;
69620;Laerm;57654;51.434;5.984;2024-02-21T00:19:12;33.73;27.06;45.24;;
69620;Laerm;57654;51.434;5.984;2024-02-21T00:19:23;34.19;27.16;47.84;;
69620;Laerm;57654;51.434;5.984;2024-02-21T00:19:34;34.58;27.39;49.36;;
69620;Laerm;57654;51.434;5.984;2024-02-21T00:19:44;34.23;27.17;46.54;;
69620;Laerm;57654;51.434;5.984;2024-02-21T00:19:54;34.29;27.12;47.82;;
69620;Laerm;57654;51.434;5.984;2024-02-21T00:20:05;33.86;27.15;46.35;;
69620;Laerm;57654;51.434;5.984;2024-02-21T00:20:15;34.31;26.78;47.22;;
69620;Laerm;57654;51.434;5.984;2024-02-21T00:20:25;33.86;27.24;46.02;;
69620;Laerm;57654;51.434;5.984;2024-02-21T00:20:36;33.89;27.00;47.27;;
69620;Laerm;57654;51.434;5.984;2024-02-21T00:20:46;33.97;27.17;47.16;;
69620;Laerm;57654;51.434;5.984;2024-02-21T00:20:57;34.17;27.05;48.27;;
69620;Laerm;57654;51.434;5.984;2024-02-21T00:21:07;34.93;27.26;48.20;;
69620;Laerm;57654;51.434;5.984;2024-02-21T00:21:17;34.18;27.11;46.91;;
69620;Laerm;57654;51.434;5.984;2024-02-21T00:21:28;34.35;27.07;48.10;;
69620;Laerm;57654;51.434;5.984;2024-02-21T00:21:38;34.58;27.07;47.65;;
69620;Laerm;57654;51.434;5.984;2024-02-21T00:21:48;34.34;27.15;47.03;;
69620;Laerm;57654;51.434;5.984;2024-02-21T00:21:59;34.13;27.10;47.75;;
69620;Laerm;57654;51.434;5.984;2024-02-21T00:22:09;34.47;27.14;49.27;;
69620;Laerm;57654;51.434;5.984;2024-02-21T00:22:19;34.45;27.22;49.02;;
69620;Laerm;57654;51.434;5.984;2024-02-21T00:22:29;34.46;27.05;48.09;;
69620;Laerm;57654;51.434;5.984;2024-02-21T00:22:41;34.56;27.13;48.72;;
69620;Laerm;57654;51.434;5.984;2024-02-21T00:22:51;34.51;26.88;48.12;;
69620;Laerm;57654;51.434;5.984;2024-02-21T00:23:01;34.37;27.01;47.46;;
69620;Laerm;57654;51.434;5.984;2024-02-21T00:23:12;33.85;27.02;46.68;;
69620;Laerm;57654;51.434;5.984;2024-02-21T00:23:22;34.32;27.01;48.08;;
69620;Laerm;57654;51.434;5.984;2024-02-21T00:23:32;34.21;27.15;47.09;;
69620;Laerm;57654;51.434;5.984;2024-02-21T00:23:42;34.09;27.17;46.99;;
69620;Laerm;57654;51.434;5.984;2024-02-21T00:23:53;34.65;26.84;48.27;;
69620;Laerm;57654;51.434;5.984;2024-02-21T00:24:03;34.22;27.02;48.11;;
69620;Laerm;57654;51.434;5.984;2024-02-21T00:24:14;33.66;26.95;45.88;;
69620;Laerm;57654;51.434;5.984;2024-02-21T00:24:24;34.25;26.90;46.92;;
69620;Laerm;57654;51.434;5.984;2024-02-21T00:24:34;34.58;27.11;48.17;;
69620;Laerm;57654;51.434;5.984;2024-02-21T00:24:44;34.13;26.88;47.58;;
69620;Laerm;57654;51.434;5.984;2024-02-21T00:24:55;34.78;27.21;48.16;;
69620;Laerm;57654;51.434;5.984;2024-02-21T00:25:05;34.46;26.99;46.24;;
69620;Laerm;57654;51.434;5.984;2024-02-21T00:25:15;34.52;27.17;47.85;;
69620;Laerm;57654;51.434;5.984;2024-02-21T00:25:25;33.78;27.09;46.91;;
69620;Laerm;57654;51.434;5.984;2024-02-21T00:25:36;39.95;27.16;54.65;;
69620;Laerm;57654;51.434;5.984;2024-02-21T00:25:46;39.10;35.02;48.08;;
69620;Laerm;57654;51.434;5.984;2024-02-21T00:25:56;38.79;35.44;48.44;;
69620;Laerm;57654;51.434;5.984;2024-02-21T00:26:06;38.54;36.05;46.40;;
69620;Laerm;57654;51.434;5.984;2024-02-21T00:26:17;38.25;35.37;49.56;;
69620;Laerm;57654;51.434;5.984;2024-02-21T00:26:28;37.67;34.75;47.06;;
69620;Laerm;57654;51.434;5.984;2024-02-21T00:26:38;37.68;34.84;46.55;;
69620;Laerm;57654;51.434;5.984;2024-02-21T00:26:48;38.29;35.25;48.61;;
69620;Laerm;57654;51.434;5.984;2024-02-21T00:26:58;38.14;34.78;49.09;;
69620;Laerm;57654;51.434;5.984;2024-02-21T00:27:08;37.42;34.52;45.76;;
69620;Laerm;57654;51.434;5.984;2024-02-21T00:27:19;37.51;34.05;46.49;;
69620;Laerm;57654;51.434;5.984;2024-02-21T00:27:29;37.62;34.33;47.53;;
69620;Laerm;57654;51.434;5.984;2024-02-21T00:27:39;37.37;34.11;48.64;;
69620;Laerm;57654;51.434;5.984;2024-02-21T00:27:49;37.40;34.03;48.78;;
69620;Laerm;57654;51.434;5.984;2024-02-21T00:28:00;36.94;33.61;46.06;;
69620;Laerm;57654;51.434;5.984;2024-02-21T00:28:10;36.85;33.76;46.71;;
69620;Laerm;57654;51.434;5.984;2024-02-21T00:28:20;37.54;33.87;48.57;;
69620;Laerm;57654;51.434;5.984;2024-02-21T00:28:31;37.29;33.87;48.52;;
69620;Laerm;57654;51.434;5.984;2024-02-21T00:28:41;37.39;33.94;47.66;;
69620;Laerm;57654;51.434;5.984;2024-02-21T00:28:51;37.14;33.75;48.63;;
69620;Laerm;57654;51.434;5.984;2024-02-21T00:29:02;36.95;33.94;48.58;;
69620;Laerm;57654;51.434;5.984;2024-02-21T00:29:12;36.98;33.43;46.35;;
69620;Laerm;57654;51.434;5.984;2024-02-21T00:29:22;37.88;33.55;47.83;;
69620;Laerm;57654;51.434;5.984;2024-02-21T00:29:32;39.70;37.51;48.16;;
69620;Laerm;57654;51.434;5.984;2024-02-21T00:29:44;39.87;37.77;47.84;;
69620;Laerm;57654;51.434;5.984;2024-02-21T00:29:54;39.18;33.87;49.15;;
69620;Laerm;57654;51.434;5.984;2024-02-21T00:30:05;36.90;33.74;46.71;;
69620;Laerm;57654;51.434;5.984;2024-02-21T00:30:15;37.12;33.93;48.63;;
69620;Laerm;57654;51.434;5.984;2024-02-21T00:30:26;37.06;33.83;49.34;;
69620;Laerm;57654;51.434;5.984;2024-02-21T00:30:36;37.08;33.54;47.93;;
69620;Laerm;57654;51.434;5.984;2024-02-21T00:30:48;36.96;33.41;48.08;;
69620;Laerm;57654;51.434;5.984;2024-02-21T00:31:00;37.17;33.39;48.47;;
69620;Laerm;57654;51.434;5.984;2024-02-21T00:31:10;37.07;33.53;47.87;;
69620;Laerm;57654;51.434;5.984;2024-02-21T00:31:20;36.70;33.48;47.61;;
69620;Laerm;57654;51.434;5.984;2024-02-21T00:31:31;36.85;33.77;46.90;;
69620;Laerm;57654;51.434;5.984;2024-02-21T00:31:41;37.22;33.41;48.00;;
69620;Laerm;57654;51.434;5.984;2024-02-21T00:31:51;37.19;33.72;49.24;;
69620;Laerm;57654;51.434;5.984;2024-02-21T00:32:02;36.98;33.76;48.90;;
69620;Laerm;57654;51.434;5.984;2024-02-21T00:32:12;37.14;33.95;48.47;;
69620;Laerm;57654;51.434;5.984;2024-02-21T00:32:22;36.93;33.81;47.02;;
69620;Laerm;57654;51.434;5.984;2024-02-21T00:32:32;37.06;33.72;48.37;;
69620;Laerm;57654;51.434;5.984;2024-02-21T00:32:44;37.35;34.02;48.29;;
69620;Laerm;57654;51.434;5.984;2024-02-21T00:32:54;36.97;33.84;48.04;;
69620;Laerm;57654;51.434;5.984;2024-02-21T00:33:05;36.93;33.83;47.08;;
69620;Laerm;57654;51.434;5.984;2024-02-21T00:33:16;37.12;30.59;47.92;;
69620;Laerm;57654;51.434;5.984;2024-02-21T00:33:26;34.27;27.66;48.34;;
69620;Laerm;57654;51.434;5.984;2024-02-21T00:33:36;34.57;26.94;48.90;;
69620;Laerm;57654;51.434;5.984;2024-02-21T00:33:47;34.20;27.54;47.37;;
69620;Laerm;57654;51.434;5.984;2024-02-21T00:33:57;34.85;27.48;49.30;;
69620;Laerm;57654;51.434;5.984;2024-02-21T00:34:08;34.66;27.10;49.81;;
69620;Laerm;57654;51.434;5.984;2024-02-21T00:34:18;33.84;27.39;46.12;;
69620;Laerm;57654;51.434;5.984;2024-02-21T00:34:28;34.66;26.99;48.16;;
69620;Laerm;57654;51.434;5.984;2024-02-21T00:34:38;34.48;27.05;48.61;;
69620;Laerm;57654;51.434;5.984;2024-02-21T00:34:49;34.38;27.19;47.84;;
69620;Laerm;57654;51.434;5.984;2024-02-21T00:34:59;34.05;27.35;48.47;;
69620;Laerm;57654;51.434;5.984;2024-02-21T00:35:09;33.77;27.11;45.89;;
69620;Laerm;57654;51.434;5.984;2024-02-21T00:35:19;33.70;27.19;47.82;;
69620;Laerm;57654;51.434;5.984;2024-02-21T00:35:30;34.57;27.18;49.48;;
69620;Laerm;57654;51.434;5.984;2024-02-21T00:35:40;34.67;27.00;50.04;;
69620;Laerm;57654;51.434;5.984;2024-02-21T00:35:50;34.54;27.27;48.38;;
69620;Laerm;57654;51.434;5.984;2024-02-21T00:36:00;34.35;27.16;48.98;;
69620;Laerm;57654;51.434;5.984;2024-02-21T00:36:11;33.48;26.96;46.13;;
69620;Laerm;57654;51.434;5.984;2024-02-21T00:36:21;33.62;27.15;47.29;;
69620;Laerm;57654;51.434;5.984;2024-02-21T00:36:31;34.69;26.85;47.32;;
69620;Laerm;57654;51.434;5.984;2024-02-21T00:36:41;34.64;27.04;48.27;;
69620;Laerm;57654;51.434;5.984;2024-02-21T00:36:52;34.41;26.85;49.48;;
69620;Laerm;57654;51.434;5.984;2024-02-21T00:37:02;33.91;27.20;46.76;;
69620;Laerm;57654;51.434;5.984;2024-02-21T00:37:12;33.51;26.85;45.50;;
69620;Laerm;57654;51.434;5.984;2024-02-21T00:37:22;33.84;27.28;46.54;;
69620;Laerm;57654;51.434;5.984;2024-02-21T00:37:33;34.52;27.20;47.37;;
69620;Laerm;57654;51.434;5.984;2024-02-21T00:37:43;34.57;27.10;48.93;;
69620;Laerm;57654;51.434;5.984;2024-02-21T00:37:53;34.98;27.23;49.31;;
69620;Laerm;57654;51.434;5.984;2024-02-21T00:38:04;34.20;26.95;48.87;;
69620;Laerm;57654;51.434;5.984;2024-02-21T00:38:14;33.78;27.03;46.71;;
69620;Laerm;57654;51.434;5.984;2024-02-21T00:38:24;33.50;27.07;45.85;;
69620;Laerm;57654;51.434;5.984;2024-02-21T00:38:34;34.67;27.06;48.46;;
69620;Laerm;57654;51.434;5.984;2024-02-21T00:38:45;33.89;26.70;47.74;;
69620;Laerm;57654;51.434;5.984;2024-02-21T00:38:55;33.94;26.83;47.66;;
69620;Laerm;57654;51.434;5.984;2024-02-21T00:39:05;34.19;27.05;47.86;;
69620;Laerm;57654;51.434;5.984;2024-02-21T00:39:16;33.97;27.06;47.12;;
69620;Laerm;57654;51.434;5.984;2024-02-21T00:39:26;33.74;27.04;47.05;;
69620;Laerm;57654;51.434;5.984;2024-02-21T00:39:36;34.27;26.87;47.73;;
69620;Laerm;57654;51.434;5.984;2024-02-21T00:39:47;34.12;26.99;48.55;;
69620;Laerm;57654;51.434;5.984;2024-02-21T00:39:57;34.81;27.03;48.61;;
69620;Laerm;57654;51.434;5.984;2024-02-21T00:40:07;34.82;26.96;49.61;;
69620;Laerm;57654;51.434;5.984;2024-02-21T00:40:18;33.83;26.99;48.42;;
69620;Laerm;57654;51.434;5.984;2024-02-21T00:40:30;34.25;26.98;47.81;;
69620;Laerm;57654;51.434;5.984;2024-02-21T00:40:40;33.91;27.20;46.41;;
69620;Laerm;57654;51.434;5.984;2024-02-21T00:40:51;33.59;26.97;46.30;;
69620;Laerm;57654;51.434;5.984;2024-02-21T00:41:01;34.06;27.04;47.64;;
69620;Laerm;57654;51.434;5.984;2024-02-21T00:41:11;33.78;26.81;45.92;;
69620;Laerm;57654;51.434;5.984;2024-02-21T00:41:21;33.14;27.05;45.81;;
69620;Laerm;57654;51.434;5.984;2024-02-21T00:41:32;33.92;27.07;46.95;;
69620;Laerm;57654;51.434;5.984;2024-02-21T00:41:42;34.36;27.10;48.73;;
69620;Laerm;57654;51.434;5.984;2024-02-21T00:41:52;34.87;26.68;48.07;;
69620;Laerm;57654;51.434;5.984;2024-02-21T00:42:03;34.40;26.96;48.94;;
69620;Laerm;57654;51.434;5.984;2024-02-21T00:42:13;33.74;27.08;46.43;;
69620;Laerm;57654;51.434;5.984;2024-02-21T00:42:24;33.58;26.85;45.90;;
69620;Laerm;57654;51.434;5.984;2024-02-21T00:42:34;33.85;27.21;46.61;;
69620;Laerm;57654;51.434;5.984;2024-02-21T00:42:44;34.74;26.75;48.15;;
69620;Laerm;57654;51.434;5.984;2024-02-21T00:42:54;34.71;26.17;49.26;;
69620;Laerm;57654;51.434;5.984;2024-02-21T00:43:05;34.20;26.74;48.81;;
69620;Laerm;57654;51.434;5.984;2024-02-21T00:43:15;34.33;26.98;47.24;;
69620;Laerm;57654;51.434;5.984;2024-02-21T00:43:25;33.75;27.01;46.85;;
69620;Laerm;57654;51.434;5.984;2024-02-21T00:43:35;34.21;27.05;47.53;;
69620;Laerm;57654;51.434;5.984;2024-02-21T00:43:46;34.02;26.85;47.62;;
69620;Laerm;57654;51.434;5.984;2024-02-21T00:43:58;34.82;27.01;49.03;;
69620;Laerm;57654;51.434;5.984;2024-02-21T00:44:08;33.46;26.87;46.62;;
69620;Laerm;57654;51.434;5.984;2024-02-21T00:44:20;33.52;27.08;47.42;;
69620;Laerm;57654;51.434;5.984;2024-02-21T00:44:30;34.13;27.00;48.36;;
69620;Laerm;57654;51.434;5.984;2024-02-21T00:44:40;34.34;27.17;48.65;;
69620;Laerm;57654;51.434;5.984;2024-02-21T00:44:51;33.85;26.98;48.37;;
69620;Laerm;57654;51.434;5.984;2024-02-21T00:45:01;34.49;27.02;48.19;;
69620;Laerm;57654;51.434;5.984;2024-02-21T00:45:11;33.81;27.11;49.10;;
69620;Laerm;57654;51.434;5.984;2024-02-21T00:45:21;34.29;26.68;48.86;;
69620;Laerm;57654;51.434;5.984;2024-02-21T00:45:32;34.26;27.20;48.39;;
69620;Laerm;57654;51.434;5.984;2024-02-21T00:45:42;34.73;27.09;49.48;;
69620;Laerm;57654;51.434;5.984;2024-02-21T00:45:52;34.39;27.11;48.85;;
69620;Laerm;57654;51.434;5.984;2024-02-21T00:46:02;33.84;27.16;46.76;;
69620;Laerm;57654;51.434;5.984;2024-02-21T00:46:15;34.02;26.94;47.32;;
69620;Laerm;57654;51.434;5.984;2024-02-21T00:46:26;33.98;26.95;48.28;;
69620;Laerm;57654;51.434;5.984;2024-02-21T00:46:36;34.11;27.06;47.57;;
69620;Laerm;57654;51.434;5.984;2024-02-21T00:46:48;34.45;27.06;49.18;;
69620;Laerm;57654;51.434;5.984;2024-02-21T00:46:59;33.73;27.07;47.51;;
69620;Laerm;57654;51.434;5.984;2024-02-21T00:47:09;34.19;26.89;47.80;;
69620;Laerm;57654;51.434;5.984;2024-02-21T00:47:20;33.33;27.09;45.66;;
69620;Laerm;57654;51.434;5.984;2024-02-21T00:47:30;34.24;27.01;46.66;;
69620;Laerm;57654;51.434;5.984;2024-02-21T00:47:40;33.99;27.21;48.35;;
69620;Laerm;57654;51.434;5.984;2024-02-21T00:47:50;34.76;27.25;48.81;;
69620;Laerm;57654;51.434;5.984;2024-02-21T00:48:01;36.10;28.80;47.72;;
69620;Laerm;57654;51.434;5.984;2024-02-21T00:48:11;42.67;37.45;48.00;;
69620;Laerm;57654;51.434;5.984;2024-02-21T00:48:21;42.43;39.11;48.87;;
69620;Laerm;57654;51.434;5.984;2024-02-21T00:48:32;36.65;27.21;47.29;;
69620;Laerm;57654;51.434;5.984;2024-02-21T00:48:42;33.90;26.98;47.39;;
69620;Laerm;57654;51.434;5.984;2024-02-21T00:48:53;34.00;27.19;46.72;;
69620;Laerm;57654;51.434;5.984;2024-02-21T00:49:03;33.47;27.02;46.14;;
69620;Laerm;57654;51.434;5.984;2024-02-21T00:49:13;34.21;26.90;48.17;;
69620;Laerm;57654;51.434;5.984;2024-02-21T00:49:23;34.03;26.98;47.97;;
69620;Laerm;57654;51.434;5.984;2024-02-21T00:49:33;34.28;27.01;47.99;;
69620;Laerm;57654;51.434;5.984;2024-02-21T00:49:44;33.63;27.01;47.33;;
69620;Laerm;57654;51.434;5.984;2024-02-21T00:49:54;35.08;27.21;49.38;;
69620;Laerm;57654;51.434;5.984;2024-02-21T00:50:05;33.75;26.91;46.58;;
69620;Laerm;57654;51.434;5.984;2024-02-21T00:50:17;34.15;27.13;47.07;;
69620;Laerm;57654;51.434;5.984;2024-02-21T00:50:27;33.95;27.04;47.66;;
69620;Laerm;57654;51.434;5.984;2024-02-21T00:50:38;34.16;26.73;47.54;;
69620;Laerm;57654;51.434;5.984;2024-02-21T00:50:48;34.43;26.82;47.84;;
69620;Laerm;57654;51.434;5.984;2024-02-21T00:50:58;35.09;26.94;49.81;;
69620;Laerm;57654;51.434;5.984;2024-02-21T00:51:08;33.34;26.94;46.07;;
69620;Laerm;57654;51.434;5.984;2024-02-21T00:51:19;34.04;27.13;48.87;;
69620;Laerm;57654;51.434;5.984;2024-02-21T00:51:29;34.50;26.91;48.02;;
69620;Laerm;57654;51.434;5.984;2024-02-21T00:51:39;34.10;26.99;47.73;;
69620;Laerm;57654;51.434;5.984;2024-02-21T00:51:49;34.77;27.16;48.87;;
69620;Laerm;57654;51.434;5.984;2024-02-21T00:52:00;33.77;26.90;49.07;;
69620;Laerm;57654;51.434;5.984;2024-02-21T00:52:10;33.44;26.99;45.99;;
69620;Laerm;57654;51.434;5.984;2024-02-21T00:52:20;33.98;26.72;48.27;;
69620;Laerm;57654;51.434;5.984;2024-02-21T00:52:30;33.74;27.06;46.77;;
69620;Laerm;57654;51.434;5.984;2024-02-21T00:52:41;33.73;27.04;47.06;;
69620;Laerm;57654;51.434;5.984;2024-02-21T00:52:51;34.58;27.16;48.43;;
69620;Laerm;57654;51.434;5.984;2024-02-21T00:53:01;34.09;27.08;48.06;;
69620;Laerm;57654;51.434;5.984;2024-02-21T00:53:11;33.60;26.97;46.51;;
69620;Laerm;57654;51.434;5.984;2024-02-21T00:53:22;33.51;27.21;46.83;;
69620;Laerm;57654;51.434;5.984;2024-02-21T00:53:32;34.53;27.00;47.93;;
69620;Laerm;57654;51.434;5.984;2024-02-21T00:53:42;34.00;27.21;48.15;;
69620;Laerm;57654;51.434;5.984;2024-02-21T00:53:53;34.74;27.04;47.84;;
69620;Laerm;57654;51.434;5.984;2024-02-21T00:54:03;34.17;26.91;47.01;;
69620;Laerm;57654;51.434;5.984;2024-02-21T00:54:13;34.49;26.70;47.19;;
69620;Laerm;57654;51.434;5.984;2024-02-21T00:54:23;33.99;27.10;48.30;;
69620;Laerm;57654;51.434;5.984;2024-02-21T00:54:34;33.84;26.99;47.85;;
69620;Laerm;57654;51.434;5.984;2024-02-21T00:54:44;34.71;26.92;48.47;;
69620;Laerm;57654;51.434;5.984;2024-02-21T00:54:54;34.23;26.94;50.01;;
69620;Laerm;57654;51.434;5.984;2024-02-21T00:55:05;34.23;27.06;50.07;;
69620;Laerm;57654;51.434;5.984;2024-02-21T00:55:15;33.69;26.90;46.19;;
69620;Laerm;57654;51.434;5.984;2024-02-21T00:55:25;34.27;26.92;47.73;;
69620;Laerm;57654;51.434;5.984;2024-02-21T00:55:35;33.73;26.70;47.15;;
69620;Laerm;57654;51.434;5.984;2024-02-21T00:55:46;34.50;26.91;48.67;;
69620;Laerm;57654;51.434;5.984;2024-02-21T00:55:56;34.67;26.93;47.88;;
69620;Laerm;57654;51.434;5.984;2024-02-21T00:56:06;33.89;26.88;48.67;;
69620;Laerm;57654;51.434;5.984;2024-02-21T00:56:17;33.75;27.15;46.60;;
69620;Laerm;57654;51.434;5.984;2024-02-21T00:56:27;34.62;27.20;47.59;;
69620;Laerm;57654;51.434;5.984;2024-02-21T00:56:37;34.33;27.03;49.35;;
69620;Laerm;57654;51.434;5.984;2024-02-21T00:56:48;34.42;27.21;48.64;;
69620;Laerm;57654;51.434;5.984;2024-02-21T00:56:58;34.63;26.94;48.64;;
69620;Laerm;57654;51.434;5.984;2024-02-21T00:57:08;33.68;27.11;46.76;;
69620;Laerm;57654;51.434;5.984;2024-02-21T00:57:19;33.50;26.97;47.89;;
69620;Laerm;57654;51.434;5.984;2024-02-21T00:57:29;34.13;27.05;46.68;;
69620;Laerm;57654;51.434;5.984;2024-02-21T00:57:39;33.76;27.01;47.32;;
69620;Laerm;57654;51.434;5.984;2024-02-21T00:57:50;34.74;26.93;49.65;;
69620;Laerm;57654;51.434;5.984;2024-02-21T00:58:00;34.53;27.02;48.68;;
69620;Laerm;57654;51.434;5.984;2024-02-21T00:58:10;33.41;26.93;47.15;;